Aérodrome :
LOGIN :

S'inscrire | Disclaimer

   EN    FR    IT 

 










Légende :    VFR   VFR Marginal   IFR   IFR Intensif   IFR Très Intensif
Visi : 
Plafond : 
>= 8 km
>= 3000ft
5 à 8 km
1000 à 3000 ft
1500m à 5 km
500 à 1000 ft
800 à 1500m
200 à 500 ft
< 800m
< 200 ft
Symboles :   Orages  Brouillard  Fortes neiges  Fortes précipitations  Vent > 20 kt
SIGMETs :   Divers  Orages  Givrage  Turbulence  Onde Orograph.  Cendres Volcan.







- Altitude de l'aérodrome : -15 ft
- Code IATA : RTM


EHRD - Rotterdam Zestienhoven

DERNIER METAR :
  • 151055Z AUTO 19011G22KT 150V220 9999 NSC 22/14 Q1010 NOSIG

METARs EXPIRÉS :
  • 151025Z AUTO 20012KT 160V230 9999 NSC 21/13 Q1010 NOSIG
  • 150955Z AUTO 19011KT 160V230 9999 NSC 21/13 Q1010 NOSIG
  • 150925Z AUTO 19010KT 160V220 9999 NSC 20/12 Q1010 NOSIG
  • 150855Z AUTO 18008KT 140V220 9999 NSC 18/12 Q1010 NOSIG
  • 150825Z AUTO 18009KT 150V210 9999 NSC 18/11 Q1010 NOSIG

TAF TAF EHRD
Valide du 15 à 06h jusqu'au 16 à 12h UTC


150511Z 1506/1612 16005KT CAVOK
BECMG 1507/1510 20010KT
BECMG 1514/1517 VRB03KT
BECMG 1521/1524 5000 BR MIFG
PROB30 1600/1606 1500 BCFG
BECMG 1606/1609 18006KT CAVOK
Pas de NOTAMs connus pour ce terrain.



MET'MAP, la Météo Aéronautique d'un coup d'oeil ! - Copyright ORBIFLY Décembre 2007 - Disclaimer

ORBIFLY MET'MAP TEAM :

Programmation & Développement : Alexandra Zaïnal
Conception & Développement : Baudouin d'Aumeries
Co-Programmation & Développement : Marc-Olivier Méhu
Soutien technique & logistique : Manuel Goepfert

Contact : metmap@orbifly.com




SOURCES & CREDITS :

   NOAA